createdAt,value
2019-03-28T00:01:20.099Z,97548.52
2019-03-28T00:03:47.147Z,97538.23
2019-03-28T00:06:14.189Z,97542.95
2019-03-28T00:08:41.242Z,97548.69
2019-03-28T00:11:08.635Z,97537.97
2019-03-28T00:13:35.688Z,97538.71
2019-03-28T00:16:02.767Z,97534.64
2019-03-28T00:18:30.082Z,97533.81
2019-03-28T00:20:57.438Z,97533.44
2019-03-28T00:23:24.791Z,97534.41
2019-03-28T00:25:53.046Z,97528.76
2019-03-28T00:28:20.101Z,97534.75
2019-03-28T00:30:47.143Z,97534.93
2019-03-28T00:33:14.199Z,97537.05
2019-03-28T00:35:41.312Z,97531.41
2019-03-28T00:38:08.386Z,97535.02
2019-03-28T00:40:35.423Z,97532.03
2019-03-28T00:43:02.551Z,97534.05
2019-03-28T00:45:29.761Z,97527.28
2019-03-28T00:47:56.806Z,97526.72
2019-03-28T00:50:23.865Z,97526.86
2019-03-28T00:52:50.902Z,97526.30
2019-03-28T00:55:18.277Z,97524.34
2019-03-28T00:57:45.621Z,97524.51
2019-03-28T01:00:12.972Z,97520.42
2019-03-28T01:02:40.012Z,97521.63
2019-03-28T01:05:07.064Z,97525.70
2019-03-28T01:07:34.426Z,97524.51
2019-03-28T01:10:01.778Z,97523.05
2019-03-28T01:12:28.813Z,97525.20
2019-03-28T01:14:56.138Z,97525.81
2019-03-28T01:17:23.177Z,97526.10
2019-03-28T01:19:50.605Z,97526.39
2019-03-28T01:22:17.645Z,97527.14
2019-03-28T01:24:45.009Z,97520.77
2019-03-28T01:27:12.042Z,97520.50
2019-03-28T01:29:39.092Z,97521.06
2019-03-28T01:32:06.131Z,97520.78
2019-03-28T01:34:33.357Z,97515.23
2019-03-28T01:37:00.758Z,97517.36
2019-03-28T01:39:27.877Z,97516.91
2019-03-28T01:41:54.923Z,97519.13
2019-03-28T01:44:22.294Z,97517.46
2019-03-28T01:46:49.384Z,97511.74
2019-03-28T01:49:17.370Z,97508.78
2019-03-28T01:51:44.410Z,97507.95
2019-03-28T01:54:11.445Z,97506.66
2019-03-28T01:56:38.813Z,97502.88
2019-03-28T01:59:06.171Z,97503.80
2019-03-28T02:01:33.219Z,97503.43
2019-03-28T02:04:00.573Z,97503.34
2019-03-28T02:06:27.626Z,97507.13
2019-03-28T02:08:54.974Z,97498.34
2019-03-28T02:11:22.328Z,97497.31
2019-03-28T02:13:50.429Z,97502.95
2019-03-28T02:16:17.755Z,97504.89
2019-03-28T02:18:44.794Z,97508.02
2019-03-28T02:21:12.094Z,97508.75
2019-03-28T02:23:39.130Z,97505.88
2019-03-28T02:26:06.462Z,97500.70
2019-03-28T02:28:33.506Z,97500.59
2019-03-28T02:31:00.862Z,97501.70
2019-03-28T02:33:28.237Z,97503.63
2019-03-28T02:35:55.284Z,97505.02
2019-03-28T02:38:22.565Z,97507.24
2019-03-28T02:40:50.694Z,97506.88
2019-03-28T02:43:18.055Z,97512.79
2019-03-28T02:45:46.432Z,97512.59
2019-03-28T02:48:13.788Z,97508.70
2019-03-28T02:50:41.139Z,97510.09
2019-03-28T02:53:08.495Z,97501.70
2019-03-28T02:55:35.546Z,97506.31
2019-03-28T02:58:02.587Z,97495.95
2019-03-28T03:00:29.638Z,97499.01
2019-03-28T03:02:56.739Z,97502.99
2019-03-28T03:05:23.781Z,97499.13
2019-03-28T03:07:50.810Z,97501.73
2019-03-28T03:10:17.893Z,97500.09
2019-03-28T03:12:45.205Z,97496.32
2019-03-28T03:15:12.260Z,97493.87
2019-03-28T03:17:39.297Z,97498.36
2019-03-28T03:20:06.327Z,97486.25
2019-03-28T03:22:33.682Z,97498.27
2019-03-28T03:25:00.713Z,97499.09
2019-03-28T03:27:27.778Z,97502.58
2019-03-28T03:29:54.794Z,97511.27
2019-03-28T03:32:22.096Z,97506.56
2019-03-28T03:34:49.156Z,97509.15
2019-03-28T03:37:16.480Z,97510.08
2019-03-28T03:39:43.840Z,97511.09
2019-03-28T03:42:11.853Z,97510.07
2019-03-28T03:44:38.969Z,97508.96
2019-03-28T03:47:06.314Z,97501.79
2019-03-28T03:49:33.415Z,97504.56
2019-03-28T03:52:00.471Z,97498.64
2019-03-28T03:54:27.496Z,97501.49
2019-03-28T03:56:54.816Z,97507.10
2019-03-28T03:59:21.858Z,97502.94
2019-03-28T04:01:49.234Z,97506.60
2019-03-28T04:04:16.572Z,97502.88
2019-03-28T04:06:43.622Z,97501.64
2019-03-28T04:09:10.917Z,97499.87
2019-03-28T04:11:38.245Z,97497.09
2019-03-28T04:14:05.530Z,97500.16
2019-03-28T04:16:32.938Z,97500.58
2019-03-28T04:19:01.209Z,97500.91
2019-03-28T04:21:28.264Z,97501.47
2019-03-28T04:23:55.803Z,97504.41
2019-03-28T04:26:23.104Z,97505.48
2019-03-28T04:28:50.426Z,97508.08
2019-03-28T04:31:18.133Z,97513.09
2019-03-28T04:33:45.120Z,97517.55
2019-03-28T04:36:12.398Z,97507.64
2019-03-28T04:38:39.445Z,97511.47
2019-03-28T04:41:06.795Z,97509.14
2019-03-28T04:43:34.147Z,97505.15
2019-03-28T04:46:01.181Z,97510.18
2019-03-28T04:48:28.497Z,97518.44
2019-03-28T04:50:55.527Z,97513.93
2019-03-28T04:53:23.555Z,97522.36
2019-03-28T04:55:50.925Z,97513.58
2019-03-28T04:58:17.975Z,97516.62
2019-03-28T05:00:45.077Z,97521.08
2019-03-28T05:03:12.134Z,97519.09
2019-03-28T05:05:39.163Z,97518.55
2019-03-28T05:08:06.577Z,97524.00
2019-03-28T05:10:33.678Z,97526.42
2019-03-28T05:13:00.976Z,97535.58
2019-03-28T05:15:28.009Z,97535.42
2019-03-28T05:17:55.377Z,97536.63
2019-03-28T05:20:22.413Z,97536.34
2019-03-28T05:22:49.461Z,97541.55
2019-03-28T05:25:16.747Z,97542.73
2019-03-28T05:27:44.085Z,97546.31
2019-03-28T05:30:11.359Z,97552.76
2019-03-28T05:32:38.695Z,97551.16
2019-03-28T05:35:06.065Z,97548.67
2019-03-28T05:37:33.111Z,97547.97
2019-03-28T05:40:00.453Z,97548.85
2019-03-28T05:42:27.823Z,97554.69
2019-03-28T05:44:55.163Z,97562.28
2019-03-28T05:47:22.518Z,97558.47
2019-03-28T05:49:49.872Z,97560.33
2019-03-28T05:52:16.917Z,97563.69
2019-03-28T05:54:43.967Z,97565.94
2019-03-28T05:57:10.998Z,97565.25
2019-03-28T05:59:38.048Z,97568.64
2019-03-28T06:02:05.079Z,97572.93
2019-03-28T06:04:32.132Z,97562.00
2019-03-28T06:06:59.512Z,97572.37
2019-03-28T06:09:26.869Z,97564.94
2019-03-28T06:11:54.608Z,97565.14
2019-03-28T06:14:22.216Z,97566.45
2019-03-28T06:16:49.546Z,97570.40
2019-03-28T06:19:16.927Z,97563.84
2019-03-28T06:21:43.969Z,97564.95
2019-03-28T06:24:11.323Z,97568.06
2019-03-28T06:26:38.610Z,97562.23
2019-03-28T06:29:08.479Z,97567.52
2019-03-28T06:31:34.723Z,97563.95
2019-03-28T06:34:01.775Z,97563.59
2019-03-28T06:36:29.105Z,97562.41
2019-03-28T06:38:56.159Z,97565.46
2019-03-28T06:41:23.526Z,97568.27
2019-03-28T06:43:50.584Z,97570.56
2019-03-28T06:46:17.910Z,97566.64
2019-03-28T06:48:45.267Z,97567.83
2019-03-28T06:51:12.309Z,97563.52
2019-03-28T06:53:39.355Z,97563.51
2019-03-28T06:56:07.636Z,97557.68
2019-03-28T06:58:34.690Z,97554.34
2019-03-28T07:01:01.727Z,97552.61
2019-03-28T07:03:29.106Z,97549.97
2019-03-28T07:05:56.447Z,97551.31
2019-03-28T07:08:25.363Z,97550.99
2019-03-28T07:10:52.793Z,97554.81
2019-03-28T07:13:19.830Z,97549.31
2019-03-28T07:15:47.991Z,97552.67
2019-03-28T07:18:15.288Z,97546.80
2019-03-28T07:20:42.342Z,97544.90
2019-03-28T07:23:09.379Z,97537.93
2019-03-28T07:25:36.743Z,97549.14
2019-03-28T07:28:06.333Z,97554.31
2019-03-28T07:30:33.169Z,97550.74
2019-03-28T07:33:00.207Z,97552.52
2019-03-28T07:35:27.257Z,97550.67
2019-03-28T07:37:54.298Z,97547.91
2019-03-28T07:40:21.352Z,97553.30
2019-03-28T07:42:48.384Z,97544.22
2019-03-28T07:45:15.439Z,97540.63
2019-03-28T07:47:42.468Z,97553.62
2019-03-28T07:50:09.868Z,97548.43
2019-03-28T07:52:37.222Z,97553.45
2019-03-28T07:55:04.409Z,97557.57
2019-03-28T07:57:32.087Z,97547.17
2019-03-28T08:00:04.529Z,97550.16
2019-03-28T08:02:29.526Z,97554.44
2019-03-28T08:04:56.860Z,97547.92
2019-03-28T08:07:23.894Z,97550.55
2019-03-28T08:09:51.259Z,97552.41
2019-03-28T08:12:23.041Z,97546.98
2019-03-28T08:14:47.365Z,97548.16
2019-03-28T08:17:14.396Z,97544.86
2019-03-28T08:19:42.421Z,97540.44
2019-03-28T08:22:09.460Z,97543.39
2019-03-28T08:24:36.494Z,97544.97
2019-03-28T08:27:03.875Z,97546.11
2019-03-28T08:29:30.915Z,97550.67
2019-03-28T08:31:58.278Z,97548.98
2019-03-28T08:34:25.317Z,97550.69
2019-03-28T08:36:52.679Z,97549.20
2019-03-28T08:39:20.112Z,97558.04
2019-03-28T08:41:48.643Z,97554.98
2019-03-28T08:44:15.930Z,97551.20
2019-03-28T08:46:42.984Z,97557.80
2019-03-28T08:49:10.014Z,97561.33
2019-03-28T08:51:37.063Z,97558.33
2019-03-28T08:54:04.370Z,97558.47
2019-03-28T08:56:31.424Z,97555.25
2019-03-28T08:58:58.776Z,97557.25
2019-03-28T09:01:25.825Z,97566.13
2019-03-28T09:03:53.297Z,97559.66
2019-03-28T09:06:20.639Z,97561.70
2019-03-28T09:08:47.668Z,97562.63
2019-03-28T09:11:15.958Z,97564.36
2019-03-28T09:13:42.998Z,97572.20
2019-03-28T09:16:10.091Z,97566.95
2019-03-28T09:18:37.124Z,97564.31
2019-03-28T09:21:04.431Z,97564.80
2019-03-28T09:23:31.811Z,97562.08
2019-03-28T09:25:59.933Z,97557.16
2019-03-28T09:28:26.968Z,97562.94
2019-03-28T09:30:54.032Z,97561.28
2019-03-28T09:33:21.334Z,97555.42
2019-03-28T09:35:48.477Z,97556.78
2019-03-28T09:38:15.736Z,97557.00
2019-03-28T09:40:43.109Z,97557.98
2019-03-28T09:43:10.147Z,97554.61
2019-03-28T09:45:37.504Z,97561.14
2019-03-28T09:48:04.534Z,97553.91
2019-03-28T09:50:31.898Z,97556.20
2019-03-28T09:52:59.275Z,97552.42
2019-03-28T09:55:26.307Z,97556.95
2019-03-28T09:57:53.357Z,97551.60
2019-03-28T10:00:20.398Z,97550.83
2019-03-28T10:02:47.769Z,97546.52
2019-03-28T10:05:14.804Z,97556.30
2019-03-28T10:07:42.153Z,97544.59
2019-03-28T10:10:09.447Z,97552.69
2019-03-28T10:12:36.523Z,97545.03
2019-03-28T10:15:03.567Z,97543.02
2019-03-28T10:17:30.962Z,97544.41
2019-03-28T10:19:58.318Z,97541.23
2019-03-28T10:22:25.680Z,97528.79
2019-03-28T10:24:52.726Z,97536.68
2019-03-28T10:27:20.080Z,97538.05
2019-03-28T10:29:47.199Z,97538.53
2019-03-28T10:32:14.572Z,97534.00
2019-03-28T10:34:41.604Z,97547.61
2019-03-28T10:37:08.695Z,97534.46
2019-03-28T10:39:36.061Z,97534.55
2019-03-28T10:42:03.154Z,97536.83
2019-03-28T10:44:30.569Z,97535.98
2019-03-28T10:46:57.930Z,97526.70
2019-03-28T10:49:25.280Z,97523.39
2019-03-28T10:51:53.763Z,97528.12
2019-03-28T10:54:21.068Z,97526.11
2019-03-28T10:56:52.182Z,97525.22
2019-03-28T10:59:23.630Z,97533.73
2019-03-28T11:01:50.492Z,97530.91
2019-03-28T11:04:15.859Z,97530.23
2019-03-28T11:06:43.316Z,97524.55
2019-03-28T11:09:10.388Z,97525.58
2019-03-28T11:11:37.474Z,97516.14
2019-03-28T11:14:04.550Z,97523.27
2019-03-28T11:16:31.923Z,97522.05
2019-03-28T11:18:58.995Z,97515.88
2019-03-28T11:21:26.426Z,97515.11
2019-03-28T11:23:53.889Z,97515.02
2019-03-28T11:26:21.012Z,97515.23
2019-03-28T11:28:48.413Z,97505.35
2019-03-28T11:31:15.845Z,97506.86
2019-03-28T11:33:43.309Z,97502.67
2019-03-28T11:36:10.659Z,97501.83
2019-03-28T11:38:37.745Z,97500.67
2019-03-28T11:41:05.162Z,97493.66
2019-03-28T11:43:32.261Z,97502.38
2019-03-28T11:45:59.667Z,97503.55
2019-03-28T11:48:27.127Z,97496.48
2019-03-28T11:50:54.203Z,97493.70
2019-03-28T11:53:21.292Z,97498.59
2019-03-28T11:55:49.084Z,97499.38
2019-03-28T11:58:16.342Z,97499.39
2019-03-28T12:00:43.678Z,97497.91
2019-03-28T12:03:10.771Z,97508.10
2019-03-28T12:05:37.847Z,97498.11
2019-03-28T12:08:04.935Z,97506.57
2019-03-28T12:10:32.014Z,97515.77
2019-03-28T12:12:59.449Z,97512.43
2019-03-28T12:15:26.530Z,97504.06
2019-03-28T12:17:53.954Z,97510.89
2019-03-28T12:20:21.041Z,97508.20
2019-03-28T12:22:49.515Z,97508.34
2019-03-28T12:25:16.944Z,97500.92
2019-03-28T12:27:44.023Z,97502.55
2019-03-28T12:30:11.449Z,97502.59
2019-03-28T12:32:38.933Z,97502.17
2019-03-28T12:35:06.083Z,97499.74
2019-03-28T12:37:34.564Z,97503.14
2019-03-28T12:40:01.752Z,97497.80
2019-03-28T12:42:28.842Z,97499.48
2019-03-28T12:44:57.280Z,97494.56
2019-03-28T12:47:24.705Z,97490.28
2019-03-28T12:49:52.043Z,97490.71
2019-03-28T12:52:19.117Z,97493.03
2019-03-28T12:54:46.208Z,97489.81
2019-03-28T12:57:14.590Z,97495.17
2019-03-28T12:59:41.813Z,97494.89
2019-03-28T13:02:08.888Z,97486.52
2019-03-28T13:04:36.271Z,97485.61
2019-03-28T13:07:03.345Z,97480.22
2019-03-28T13:09:30.766Z,97483.34
2019-03-28T13:11:58.147Z,97486.46
2019-03-28T13:14:25.237Z,97480.13
2019-03-28T13:16:52.655Z,97490.45
2019-03-28T13:19:20.010Z,97481.20
2019-03-28T13:21:48.466Z,97476.88
2019-03-28T13:24:15.948Z,97475.41
2019-03-28T13:26:43.025Z,97473.22
2019-03-28T13:29:10.231Z,97467.44
2019-03-28T13:31:37.364Z,97468.77
2019-03-28T13:34:04.453Z,97471.48
2019-03-28T13:36:31.536Z,97466.38
2019-03-28T13:38:58.925Z,97463.57
2019-03-28T13:41:26.113Z,97460.88
2019-03-28T13:43:53.304Z,97459.98
2019-03-28T13:46:20.708Z,97452.44
2019-03-28T13:48:47.799Z,97457.86
2019-03-28T13:51:14.871Z,97455.00
2019-03-28T13:53:41.966Z,97451.32
2019-03-28T13:56:09.400Z,97451.91
2019-03-28T13:58:36.849Z,97454.25
2019-03-28T14:01:04.006Z,97451.22
2019-03-28T14:03:31.090Z,97460.59
2019-03-28T14:05:58.511Z,97459.25
2019-03-28T14:08:25.597Z,97456.73
2019-03-28T14:10:53.007Z,97468.11
2019-03-28T14:13:20.080Z,97455.56
2019-03-28T14:15:48.539Z,97459.11
2019-03-28T14:18:15.617Z,97462.09
2019-03-28T14:20:42.927Z,97456.61
2019-03-28T14:23:10.527Z,97465.77
2019-03-28T14:25:37.958Z,97450.07
2019-03-28T14:28:05.034Z,97458.66
2019-03-28T14:30:32.465Z,97459.23
2019-03-28T14:33:10.601Z,97454.77
2019-03-28T14:35:29.021Z,97457.40
2019-03-28T14:37:56.378Z,97459.84
2019-03-28T14:40:23.854Z,97462.34
2019-03-28T14:42:51.308Z,97462.17
2019-03-28T14:45:18.407Z,97467.09
2019-03-28T14:47:45.485Z,97450.52
2019-03-28T14:50:12.692Z,97461.45
2019-03-28T14:52:39.730Z,97459.81
2019-03-28T14:55:07.141Z,97458.27
2019-03-28T14:57:34.217Z,97456.36
2019-03-28T15:00:01.309Z,97453.47
2019-03-28T15:02:28.897Z,97457.41
2019-03-28T15:04:56.356Z,97456.25
2019-03-28T15:07:23.424Z,97458.16
2019-03-28T15:09:50.887Z,97457.41
2019-03-28T15:12:17.956Z,97454.41
2019-03-28T15:14:45.046Z,97453.20
2019-03-28T15:17:12.127Z,97455.45
2019-03-28T15:19:39.217Z,97460.44
2019-03-28T15:22:06.285Z,97460.92
2019-03-28T15:24:33.360Z,97459.05
2019-03-28T15:27:01.129Z,97458.62
2019-03-28T15:29:28.599Z,97454.45
2019-03-28T15:31:55.678Z,97461.20
2019-03-28T15:34:22.752Z,97464.33
2019-03-28T15:36:49.842Z,97458.50
2019-03-28T15:39:16.917Z,97456.90
2019-03-28T15:41:44.272Z,97462.58
2019-03-28T15:44:11.783Z,97450.93
2019-03-28T15:46:38.878Z,97458.20
2019-03-28T15:49:06.290Z,97455.00
2019-03-28T15:51:33.771Z,97450.78
2019-03-28T15:54:01.230Z,97448.02
2019-03-28T15:56:28.661Z,97450.69
2019-03-28T15:58:56.046Z,97448.59
2019-03-28T16:01:23.502Z,97451.42
2019-03-28T16:03:53.347Z,97442.05
2019-03-28T16:06:22.309Z,97453.65
2019-03-28T16:08:48.843Z,97447.87
2019-03-28T16:11:15.924Z,97442.40
2019-03-28T16:13:43.424Z,97443.13
2019-03-28T16:16:10.570Z,97440.08
2019-03-28T16:18:37.657Z,97443.20
2019-03-28T16:21:04.832Z,97439.76
2019-03-28T16:23:31.918Z,97437.75
2019-03-28T16:25:59.019Z,97435.56
2019-03-28T16:28:28.152Z,97437.64
2019-03-28T16:30:54.910Z,97444.37
2019-03-28T16:33:21.995Z,97446.05
2019-03-28T16:35:49.350Z,97445.73
2019-03-28T16:38:17.794Z,97441.41
2019-03-28T16:40:45.279Z,97454.47
2019-03-28T16:43:12.733Z,97447.66
2019-03-28T16:45:40.192Z,97454.16
2019-03-28T16:48:07.624Z,97454.45
2019-03-28T16:50:35.081Z,97452.52
2019-03-28T16:53:02.198Z,97457.20
2019-03-28T16:55:29.284Z,97450.25
2019-03-28T16:57:56.762Z,97452.77
2019-03-28T17:00:23.837Z,97449.05
2019-03-28T17:02:51.270Z,97454.83
2019-03-28T17:05:18.350Z,97452.59
2019-03-28T17:07:45.752Z,97452.52
2019-03-28T17:10:12.831Z,97452.78
2019-03-28T17:12:40.179Z,97452.09
2019-03-28T17:15:07.611Z,97454.23
2019-03-28T17:17:38.316Z,97453.59
2019-03-28T17:20:03.650Z,97455.23
2019-03-28T17:22:31.107Z,97448.92
2019-03-28T17:24:58.195Z,97453.99
2019-03-28T17:27:25.291Z,97453.84
2019-03-28T17:29:52.663Z,97452.93
2019-03-28T17:32:20.122Z,97452.84
2019-03-28T17:34:47.578Z,97447.54
2019-03-28T17:37:15.033Z,97457.30
2019-03-28T17:39:42.111Z,97457.30
2019-03-28T17:42:10.588Z,97457.30
2019-03-28T17:44:37.669Z,97462.04
2019-03-28T17:47:05.072Z,97457.98
2019-03-28T17:49:32.154Z,97458.60
2019-03-28T17:51:59.471Z,97463.34
2019-03-28T17:54:26.554Z,97464.17
2019-03-28T17:56:53.713Z,97466.66
2019-03-28T17:59:20.862Z,97469.14
2019-03-28T18:01:48.282Z,97466.66
2019-03-28T18:04:22.649Z,97470.01
2019-03-28T18:06:44.268Z,97468.97
2019-03-28T18:09:11.640Z,97471.02
2019-03-28T18:11:39.132Z,97469.89
2019-03-28T18:14:06.588Z,97482.19
2019-03-28T18:16:34.223Z,97473.40
2019-03-28T18:19:01.384Z,97485.33
2019-03-28T18:21:29.539Z,97480.66
2019-03-28T18:23:57.054Z,97489.14
2019-03-28T18:26:24.171Z,97490.95
2019-03-28T18:28:51.238Z,97491.44
2019-03-28T18:31:18.320Z,97493.70
2019-03-28T18:33:45.419Z,97493.13
2019-03-28T18:36:12.496Z,97505.22
2019-03-28T18:38:39.585Z,97506.05
2019-03-28T18:41:06.759Z,97506.66
2019-03-28T18:43:34.154Z,97512.09
2019-03-28T18:46:01.591Z,97517.67
2019-03-28T18:48:35.930Z,97519.67
2019-03-28T18:50:57.837Z,97521.33
2019-03-28T18:53:24.928Z,97518.11
2019-03-28T18:55:52.345Z,97522.63
2019-03-28T18:58:19.445Z,97525.14
2019-03-28T19:00:48.267Z,97522.31
2019-03-28T19:03:15.317Z,97516.74
2019-03-28T19:05:42.684Z,97524.32
2019-03-28T19:08:10.063Z,97520.75
2019-03-28T19:10:37.862Z,97521.45
2019-03-28T19:13:05.597Z,97529.16
2019-03-28T19:15:32.663Z,97515.98
2019-03-28T19:17:59.995Z,97518.94
2019-03-28T19:20:28.356Z,97525.81
2019-03-28T19:22:55.809Z,97527.95
2019-03-28T19:25:23.266Z,97527.59
2019-03-28T19:27:50.360Z,97528.30
2019-03-28T19:30:17.441Z,97532.69
2019-03-28T19:32:44.534Z,97531.16
2019-03-28T19:35:11.604Z,97527.95
2019-03-28T19:37:38.948Z,97540.17
2019-03-28T19:40:07.029Z,97534.38
2019-03-28T19:42:34.447Z,97533.20
2019-03-28T19:45:01.544Z,97535.94
2019-03-28T19:47:28.833Z,97530.37
2019-03-28T19:49:55.884Z,97534.06
2019-03-28T19:52:22.967Z,97535.36
2019-03-28T19:54:50.074Z,97534.06
2019-03-28T19:57:17.154Z,97534.89
2019-03-28T19:59:44.265Z,97536.45
2019-03-28T20:02:14.093Z,97532.08
2019-03-28T20:04:40.461Z,97533.64
2019-03-28T20:07:20.982Z,97532.64
2019-03-28T20:09:36.989Z,97533.84
2019-03-28T20:12:05.375Z,97532.09
2019-03-28T20:14:33.029Z,97533.17
2019-03-28T20:17:00.486Z,97535.30
2019-03-28T20:19:28.936Z,97536.13
2019-03-28T20:21:59.477Z,97543.23
2019-03-28T20:24:26.206Z,97535.38
2019-03-28T20:26:54.369Z,97541.20
2019-03-28T20:29:21.457Z,97535.86
2019-03-28T20:31:48.819Z,97529.45
2019-03-28T20:34:15.910Z,97528.03
2019-03-28T20:36:44.183Z,97524.11
2019-03-28T20:39:11.476Z,97521.05
2019-03-28T20:41:38.725Z,97522.13
2019-03-28T20:44:05.819Z,97528.66
2019-03-28T20:46:33.254Z,97529.61
2019-03-28T20:49:00.711Z,97530.44
2019-03-28T20:51:28.090Z,97530.91
2019-03-28T20:53:55.531Z,97531.27
2019-03-28T20:56:23.118Z,97537.31
2019-03-28T20:58:50.163Z,97536.83
2019-03-28T21:01:17.258Z,97535.88
2019-03-28T21:03:44.331Z,97530.66
2019-03-28T21:06:15.487Z,97527.23
2019-03-28T21:08:40.577Z,97529.01
2019-03-28T21:11:07.670Z,97527.10
2019-03-28T21:13:35.356Z,97524.02
2019-03-28T21:16:03.357Z,97522.71
2019-03-28T21:18:30.449Z,97525.57
2019-03-28T21:20:57.871Z,97516.56
2019-03-28T21:23:25.216Z,97513.12
2019-03-28T21:25:52.299Z,97516.09
2019-03-28T21:28:19.336Z,97513.48
2019-03-28T21:30:47.958Z,97507.66
2019-03-28T21:33:15.741Z,97513.35
2019-03-28T21:35:43.089Z,97505.75
2019-03-28T21:38:10.443Z,97512.62
2019-03-28T21:40:38.463Z,97509.91
2019-03-28T21:43:05.504Z,97510.62
2019-03-28T21:45:32.563Z,97506.13
2019-03-28T21:47:59.868Z,97510.04
2019-03-28T21:50:27.614Z,97502.22
2019-03-28T21:52:55.005Z,97502.59
2019-03-28T21:55:22.052Z,97504.75
2019-03-28T21:57:49.085Z,97502.52
2019-03-28T22:00:16.437Z,97501.94
2019-03-28T22:02:43.472Z,97500.08
2019-03-28T22:05:10.584Z,97501.77
2019-03-28T22:07:37.613Z,97501.34
2019-03-28T22:10:08.352Z,97503.74
2019-03-28T22:12:33.746Z,97499.98
2019-03-28T22:15:01.081Z,97498.02
2019-03-28T22:17:28.538Z,97500.39
2019-03-28T22:19:55.600Z,97499.45
2019-03-28T22:22:22.618Z,97503.59
2019-03-28T22:24:49.989Z,97507.84
2019-03-28T22:27:17.039Z,97506.81
2019-03-28T22:29:44.316Z,97501.36
2019-03-28T22:32:11.961Z,97499.94
2019-03-28T22:34:39.109Z,97496.38
2019-03-28T22:37:06.409Z,97497.56
2019-03-28T22:39:33.433Z,97498.50
2019-03-28T22:42:00.775Z,97502.29
2019-03-28T22:44:27.808Z,97498.38
2019-03-28T22:46:55.161Z,97494.95
2019-03-28T22:49:22.193Z,97493.77
2019-03-28T22:51:49.561Z,97495.55
2019-03-28T22:54:16.591Z,97494.84
2019-03-28T22:56:43.989Z,97493.31
2019-03-28T22:59:11.989Z,97493.20
2019-03-28T23:01:39.129Z,97494.00
2019-03-28T23:04:06.645Z,97496.96
2019-03-28T23:06:33.698Z,97493.17
2019-03-28T23:09:00.733Z,97494.95
2019-03-28T23:11:29.399Z,97489.86
2019-03-28T23:13:56.432Z,97494.00
2019-03-28T23:16:23.779Z,97487.73
2019-03-28T23:18:51.411Z,97483.11
2019-03-28T23:21:18.542Z,97480.98
2019-03-28T23:23:45.898Z,97481.69
2019-03-28T23:26:13.190Z,97478.37
2019-03-28T23:28:40.504Z,97475.77
2019-03-28T23:31:07.625Z,97476.83
2019-03-28T23:33:35.026Z,97469.61
2019-03-28T23:36:02.073Z,97468.06
2019-03-28T23:38:29.418Z,97462.26
2019-03-28T23:40:56.768Z,97465.58
2019-03-28T23:43:23.804Z,97465.92
2019-03-28T23:45:50.859Z,97457.16
2019-03-28T23:48:18.136Z,97454.56
2019-03-28T23:50:45.170Z,97463.45
2019-03-28T23:53:12.527Z,97464.52
2019-03-28T23:55:39.873Z,97460.97
2019-03-28T23:58:07.228Z,97464.76
